createdAt,value
2022-12-17T00:00:43.739Z,22.80
2022-12-17T00:03:30.106Z,23.77
2022-12-17T00:06:16.205Z,22.73
2022-12-17T00:09:01.961Z,24.20
2022-12-17T00:11:47.849Z,24.13
2022-12-17T00:14:33.911Z,24.15
2022-12-17T00:17:19.808Z,24.23
2022-12-17T00:20:05.684Z,23.65
2022-12-17T00:22:51.374Z,24.75
2022-12-17T00:25:37.226Z,23.40
2022-12-17T00:28:28.955Z,23.75
2022-12-17T00:31:28.533Z,24.58
2022-12-17T00:34:14.765Z,24.67
2022-12-17T00:37:00.601Z,25.05
2022-12-17T00:39:46.400Z,24.27
2022-12-17T00:42:32.276Z,24.08
2022-12-17T00:45:18.675Z,24.92
2022-12-17T00:48:06.580Z,24.65
2022-12-17T00:50:52.945Z,24.67
2022-12-17T00:53:39.060Z,25.27
2022-12-17T00:56:25.232Z,24.45
2022-12-17T00:59:11.082Z,24.25
2022-12-17T01:01:57.005Z,24.23
2022-12-17T01:04:42.741Z,24.98
2022-12-17T01:07:28.557Z,23.38
2022-12-17T01:10:14.404Z,24.40
2022-12-17T01:13:00.873Z,23.85
2022-12-17T01:15:46.866Z,23.63
2022-12-17T01:18:37.578Z,23.38
2022-12-17T01:21:23.788Z,22.63
2022-12-17T01:24:09.533Z,23.55
2022-12-17T01:26:56.257Z,23.38
2022-12-17T01:29:42.375Z,24.73
2022-12-17T01:32:28.504Z,24.83
2022-12-17T01:35:14.354Z,25.77
2022-12-17T01:38:00.354Z,23.70
2022-12-17T01:40:46.062Z,23.13
2022-12-17T01:43:31.995Z,24.30
2022-12-17T01:46:18.284Z,24.52
2022-12-17T01:49:06.122Z,23.42
2022-12-17T01:51:52.202Z,24.42
2022-12-17T01:54:37.953Z,24.30
2022-12-17T01:57:24.787Z,24.58
2022-12-17T02:00:28.202Z,24.98
2022-12-17T02:03:15.821Z,24.70
2022-12-17T02:06:29.953Z,23.80
2022-12-17T02:09:53.600Z,25.50
2022-12-17T02:12:42.801Z,23.77
2022-12-17T02:15:36.646Z,23.83
2022-12-17T02:18:25.212Z,24.55
2022-12-17T02:21:12.023Z,25.67
2022-12-17T02:24:10.557Z,24.58
2022-12-17T02:27:04.387Z,24.23
2022-12-17T02:29:52.474Z,26.45
2022-12-17T02:32:38.793Z,24.75
2022-12-17T02:35:30.583Z,24.90
2022-12-17T02:38:16.375Z,25.60
2022-12-17T02:41:02.219Z,25.63
2022-12-17T02:43:47.966Z,23.30
2022-12-17T02:46:33.790Z,24.67
2022-12-17T02:49:19.742Z,25.73
2022-12-17T02:52:06.603Z,24.25
2022-12-17T02:54:52.293Z,25.42
2022-12-17T02:57:43.578Z,24.67
2022-12-17T03:00:30.858Z,24.55
2022-12-17T03:03:18.129Z,25.50
2022-12-17T03:06:03.880Z,24.25
2022-12-17T03:08:49.732Z,24.88
2022-12-17T03:11:36.250Z,25.75
2022-12-17T03:14:22.245Z,23.83
2022-12-17T03:17:08.134Z,26.05
2022-12-17T03:19:53.917Z,26.90
2022-12-17T03:22:39.861Z,25.58
2022-12-17T03:25:26.164Z,26.70
2022-12-17T03:28:11.831Z,25.00
2022-12-17T03:30:57.666Z,25.98
2022-12-17T03:33:43.492Z,25.15
2022-12-17T03:36:29.205Z,24.92
2022-12-17T03:39:15.064Z,25.20
2022-12-17T03:42:00.756Z,25.35
2022-12-17T03:44:46.614Z,25.90
2022-12-17T03:47:32.168Z,26.30
2022-12-17T03:50:17.795Z,24.88
2022-12-17T03:53:03.651Z,26.05
2022-12-17T03:55:49.720Z,26.25
2022-12-17T03:58:35.602Z,27.08
2022-12-17T04:01:21.858Z,25.48
2022-12-17T04:04:07.892Z,27.27
2022-12-17T04:06:53.943Z,25.73
2022-12-17T04:09:39.605Z,25.38
2022-12-17T04:12:25.998Z,26.10
2022-12-17T04:15:11.898Z,26.65
2022-12-17T04:17:57.580Z,25.98
2022-12-17T04:20:43.331Z,24.90
2022-12-17T04:23:29.148Z,26.73
2022-12-17T04:26:14.910Z,25.23
2022-12-17T04:29:00.754Z,25.02
2022-12-17T04:31:46.483Z,25.38
2022-12-17T04:34:32.386Z,27.27
2022-12-17T04:37:18.199Z,24.55
2022-12-17T04:40:04.246Z,26.45
2022-12-17T04:42:49.913Z,25.20
2022-12-17T04:45:35.706Z,26.02
2022-12-17T04:48:23.024Z,27.10
2022-12-17T04:51:08.934Z,27.40
2022-12-17T04:53:54.739Z,26.10
2022-12-17T04:56:40.659Z,26.98
2022-12-17T04:59:26.574Z,26.80
2022-12-17T05:02:12.667Z,27.48
2022-12-17T05:04:58.560Z,27.70
2022-12-17T05:07:44.893Z,26.48
2022-12-17T05:10:30.954Z,27.60
2022-12-17T05:13:17.731Z,28.30
2022-12-17T05:16:03.645Z,27.92
2022-12-17T05:18:50.093Z,27.30
2022-12-17T05:21:35.887Z,28.10
2022-12-17T05:24:21.637Z,27.50
2022-12-17T05:27:07.466Z,28.35
2022-12-17T05:29:53.301Z,27.95
2022-12-17T05:32:39.351Z,29.65
2022-12-17T05:35:25.590Z,27.90
2022-12-17T05:38:11.230Z,29.52
2022-12-17T05:40:57.135Z,29.58
2022-12-17T05:43:42.963Z,29.45
2022-12-17T05:46:28.662Z,28.60
2022-12-17T05:49:14.441Z,27.48
2022-12-17T05:52:00.233Z,29.08
2022-12-17T05:54:46.247Z,28.38
2022-12-17T05:57:31.962Z,27.60
2022-12-17T06:00:17.568Z,27.60
2022-12-17T06:03:03.447Z,27.27
2022-12-17T06:05:49.230Z,28.23
2022-12-17T06:08:35.205Z,27.60
2022-12-17T06:11:20.994Z,28.27
2022-12-17T06:14:06.733Z,27.17
2022-12-17T06:16:52.881Z,26.55
2022-12-17T06:19:38.819Z,27.38
2022-12-17T06:22:24.481Z,28.50
2022-12-17T06:25:11.620Z,28.70
2022-12-17T06:27:57.374Z,27.80
2022-12-17T06:30:43.219Z,27.98
2022-12-17T06:33:29.511Z,27.67
2022-12-17T06:36:21.950Z,26.25
2022-12-17T06:39:09.058Z,26.30
2022-12-17T06:42:02.177Z,25.88
2022-12-17T06:44:49.992Z,26.00
2022-12-17T06:47:36.276Z,26.40
2022-12-17T06:50:23.035Z,23.48
2022-12-17T06:53:19.959Z,26.88
2022-12-17T06:56:05.769Z,25.35
2022-12-17T06:58:51.673Z,24.95
2022-12-17T07:01:37.628Z,25.80
2022-12-17T07:04:23.863Z,25.17
2022-12-17T07:07:09.538Z,24.13
2022-12-17T07:09:55.396Z,24.38
2022-12-17T07:12:43.277Z,24.42
2022-12-17T07:15:29.129Z,24.85
2022-12-17T07:18:20.269Z,24.40
2022-12-17T07:21:06.199Z,23.85
2022-12-17T07:23:52.073Z,24.67
2022-12-17T07:26:37.955Z,24.10
2022-12-17T07:29:23.724Z,24.30
2022-12-17T07:32:09.594Z,26.20
2022-12-17T07:34:55.501Z,25.08
2022-12-17T07:37:41.333Z,23.98
2022-12-17T07:40:27.897Z,24.77
2022-12-17T07:43:13.726Z,24.45
2022-12-17T07:45:59.781Z,25.88
2022-12-17T07:48:45.909Z,25.38
2022-12-17T07:51:31.750Z,25.08
2022-12-17T07:54:17.805Z,27.20
2022-12-17T07:57:03.685Z,26.20
2022-12-17T07:59:49.397Z,26.90
2022-12-17T08:02:35.430Z,26.40
2022-12-17T08:05:21.514Z,25.95
2022-12-17T08:08:07.171Z,26.65
2022-12-17T08:10:53.032Z,26.10
2022-12-17T08:13:39.979Z,27.15
2022-12-17T08:16:26.408Z,26.88
2022-12-17T08:19:12.304Z,25.02
2022-12-17T08:21:58.101Z,25.77
2022-12-17T08:24:43.810Z,26.88
2022-12-17T08:27:29.690Z,27.23
2022-12-17T08:30:15.430Z,26.55
2022-12-17T08:33:01.286Z,26.27
2022-12-17T08:35:47.015Z,27.67
2022-12-17T08:38:32.961Z,27.15
2022-12-17T08:41:19.765Z,28.00
2022-12-17T08:44:05.597Z,26.50
2022-12-17T08:46:51.426Z,27.38
2022-12-17T08:49:37.192Z,26.40
2022-12-17T08:52:23.285Z,27.15
2022-12-17T08:55:09.068Z,27.20
2022-12-17T08:57:54.866Z,26.90
2022-12-17T09:00:40.598Z,28.40
2022-12-17T09:03:27.276Z,27.05
2022-12-17T09:06:13.168Z,27.42
2022-12-17T09:08:58.881Z,25.88
2022-12-17T09:11:44.790Z,26.05
2022-12-17T09:14:30.687Z,25.10
2022-12-17T09:17:16.669Z,28.50
2022-12-17T09:20:02.520Z,27.13
2022-12-17T09:23:08.293Z,26.35
2022-12-17T09:25:58.122Z,25.17
2022-12-17T09:28:44.117Z,26.60
2022-12-17T09:31:37.907Z,26.55
2022-12-17T09:34:23.961Z,20.50
2022-12-17T09:37:09.690Z,26.92
2022-12-17T09:39:56.485Z,25.52
2022-12-17T09:43:27.574Z,25.90
2022-12-17T09:46:21.511Z,25.38
2022-12-17T09:49:22.061Z,26.13
2022-12-17T09:52:07.915Z,24.25
2022-12-17T09:55:07.366Z,25.27
2022-12-17T09:57:54.432Z,25.05
2022-12-17T10:00:41.633Z,25.33
2022-12-17T10:03:31.396Z,25.55
2022-12-17T10:06:22.525Z,24.52
2022-12-17T10:09:09.645Z,23.83
2022-12-17T10:11:56.454Z,25.85
2022-12-17T10:14:42.527Z,25.00
2022-12-17T10:17:39.335Z,25.88
2022-12-17T10:20:48.826Z,25.85
2022-12-17T10:23:48.191Z,25.55
2022-12-17T10:26:41.992Z,25.30
2022-12-17T10:29:32.900Z,25.30
2022-12-17T10:32:40.324Z,24.35
2022-12-17T10:35:33.733Z,25.60
2022-12-17T10:38:20.347Z,25.25
2022-12-17T10:41:06.550Z,24.73
2022-12-17T10:43:53.197Z,25.80
2022-12-17T10:46:57.069Z,24.40
2022-12-17T10:49:43.537Z,25.30
2022-12-17T10:52:44.638Z,25.05
2022-12-17T10:55:44.875Z,26.48
2022-12-17T10:58:41.021Z,25.23
2022-12-17T11:01:30.440Z,24.73
2022-12-17T11:04:17.044Z,25.27
2022-12-17T11:07:07.677Z,26.35
2022-12-17T11:10:08.481Z,27.17
2022-12-17T11:13:29.942Z,26.70
2022-12-17T11:16:17.184Z,24.63
2022-12-17T11:19:16.783Z,25.63
2022-12-17T11:22:04.022Z,27.38
2022-12-17T11:24:57.385Z,26.85
2022-12-17T11:27:46.277Z,26.98
2022-12-17T11:30:35.544Z,25.27
2022-12-17T11:33:40.412Z,24.60
2022-12-17T11:39:57.536Z,25.20
2022-12-17T11:43:29.936Z,26.35
2022-12-17T11:46:24.927Z,24.98
2022-12-17T11:49:48.109Z,26.25
2022-12-17T11:52:37.066Z,26.30
2022-12-17T11:55:35.492Z,25.95
2022-12-17T11:58:30.505Z,25.25
2022-12-17T12:01:39.022Z,26.90
2022-12-17T12:04:31.696Z,25.73
2022-12-17T12:07:32.978Z,26.15
2022-12-17T12:10:30.390Z,26.42
2022-12-17T12:13:38.346Z,27.55
2022-12-17T12:16:52.223Z,28.30
2022-12-17T12:20:06.247Z,26.70
2022-12-17T12:23:02.814Z,14.75
2022-12-17T12:26:02.782Z,16.08
2022-12-17T12:29:06.638Z,24.63
2022-12-17T12:31:58.950Z,27.05
2022-12-17T12:34:52.348Z,26.08
2022-12-17T12:37:38.354Z,28.23
2022-12-17T12:40:30.475Z,26.35
2022-12-17T12:43:23.787Z,27.38
2022-12-17T12:46:41.935Z,29.33
2022-12-17T12:49:52.758Z,28.15
2022-12-17T12:52:43.426Z,28.35
2022-12-17T12:55:29.197Z,29.30
2022-12-17T12:58:21.731Z,28.85
2022-12-17T13:01:07.643Z,29.95
2022-12-17T13:03:56.590Z,30.90
2022-12-17T13:06:39.277Z,31.13
2022-12-17T13:09:15.563Z,32.95
2022-12-17T13:11:43.736Z,31.35
2022-12-17T13:14:19.329Z,32.00
2022-12-17T13:17:01.796Z,33.30
2022-12-17T13:19:36.736Z,34.33
2022-12-17T13:22:23.315Z,32.20
2022-12-17T13:24:52.907Z,34.25
2022-12-17T13:27:39.792Z,33.33
2022-12-17T13:30:22.075Z,32.35
2022-12-17T13:33:23.130Z,31.45
2022-12-17T13:36:15.623Z,31.27
2022-12-17T13:38:51.805Z,31.65
2022-12-17T13:41:20.381Z,32.65
2022-12-17T13:43:56.991Z,32.63
2022-12-17T13:46:29.060Z,34.05
2022-12-17T13:49:01.088Z,31.85
2022-12-17T13:51:30.478Z,32.53
2022-12-17T13:53:59.338Z,33.53
2022-12-17T13:56:35.766Z,35.47
2022-12-17T13:59:09.100Z,33.08
2022-12-17T14:04:28.369Z,33.72
2022-12-17T14:07:00.112Z,33.80
2022-12-17T14:09:39.214Z,32.33
2022-12-17T14:12:22.261Z,32.72
2022-12-17T14:14:58.354Z,33.50
2022-12-17T14:17:30.256Z,34.35
2022-12-17T14:20:19.009Z,33.75
2022-12-17T14:22:51.786Z,34.63
2022-12-17T14:25:21.076Z,33.75
2022-12-17T14:27:56.764Z,34.58
2022-12-17T14:30:31.171Z,34.15
2022-12-17T14:32:59.012Z,35.25
2022-12-17T14:35:31.573Z,33.75
2022-12-17T14:37:58.902Z,34.97
2022-12-17T14:40:26.468Z,34.65
2022-12-17T14:42:57.684Z,34.65
2022-12-17T14:45:26.019Z,35.38
2022-12-17T14:48:00.750Z,36.20
2022-12-17T14:50:35.215Z,35.85
2022-12-17T14:53:04.571Z,34.53
2022-12-17T14:55:33.192Z,36.20
2022-12-17T14:58:12.810Z,36.13
2022-12-17T15:01:06.044Z,37.08
2022-12-17T15:03:37.232Z,37.63
2022-12-17T15:06:06.761Z,36.53
2022-12-17T15:08:40.047Z,36.92
2022-12-17T15:11:07.715Z,38.60
2022-12-17T15:13:35.067Z,37.30
2022-12-17T15:16:02.383Z,37.05
2022-12-17T15:18:29.672Z,40.85
2022-12-17T15:20:57.013Z,39.65
2022-12-17T15:23:24.690Z,41.47
2022-12-17T15:25:52.954Z,41.40
2022-12-17T15:28:20.603Z,40.88
2022-12-17T15:30:48.296Z,39.95
2022-12-17T15:33:15.762Z,39.88
2022-12-17T15:35:43.548Z,37.53
2022-12-17T15:38:11.626Z,39.10
2022-12-17T15:40:38.987Z,39.22
2022-12-17T15:43:12.504Z,39.08
2022-12-17T15:45:45.061Z,37.97
2022-12-17T15:48:13.685Z,38.75
2022-12-17T15:50:41.061Z,39.45
2022-12-17T15:53:09.310Z,42.25
2022-12-17T15:55:37.301Z,41.05
2022-12-17T15:58:05.102Z,41.17
2022-12-17T16:00:32.478Z,40.72
2022-12-17T16:02:59.852Z,39.65
2022-12-17T16:05:27.302Z,39.33
2022-12-17T16:07:58.906Z,40.25
2022-12-17T16:10:26.393Z,38.28
2022-12-17T16:12:53.797Z,40.40
2022-12-17T16:15:21.088Z,40.33
2022-12-17T16:17:48.452Z,39.60
2022-12-17T16:20:15.780Z,40.28
2022-12-17T16:22:43.180Z,41.42
2022-12-17T16:25:10.523Z,40.45
2022-12-17T16:27:37.960Z,40.85
2022-12-17T16:30:05.868Z,41.67
2022-12-17T16:32:36.612Z,41.10
2022-12-17T16:35:05.217Z,39.53
2022-12-17T16:37:32.583Z,40.55
2022-12-17T16:40:00.537Z,41.55
2022-12-17T16:42:28.645Z,39.97
2022-12-17T16:44:55.945Z,41.00
2022-12-17T16:47:23.394Z,42.88
2022-12-17T16:49:50.852Z,41.35
2022-12-17T16:52:18.233Z,41.63
2022-12-17T16:54:45.542Z,41.85
2022-12-17T16:57:12.825Z,43.67
2022-12-17T16:59:40.167Z,48.33
2022-12-17T17:02:14.163Z,44.08
2022-12-17T17:04:41.649Z,41.28
2022-12-17T17:07:08.991Z,41.45
2022-12-17T17:09:36.866Z,38.05
2022-12-17T17:12:04.424Z,38.97
2022-12-17T17:14:31.726Z,38.80
2022-12-17T17:16:59.515Z,35.95
2022-12-17T17:19:26.850Z,35.35
2022-12-17T17:21:54.536Z,35.40
2022-12-17T17:24:23.949Z,36.58
2022-12-17T17:26:51.640Z,38.60
2022-12-17T17:29:19.066Z,37.05
2022-12-17T17:32:09.194Z,37.75
2022-12-17T17:34:36.863Z,37.53
2022-12-17T17:37:04.166Z,36.17
2022-12-17T17:39:34.644Z,33.70
2022-12-17T17:42:02.197Z,34.78
2022-12-17T17:44:29.467Z,34.95
2022-12-17T17:46:56.846Z,32.95
2022-12-17T17:49:24.208Z,31.45
2022-12-17T17:52:08.826Z,32.15
2022-12-17T17:54:39.470Z,30.88
2022-12-17T17:57:07.202Z,30.33
2022-12-17T17:59:34.680Z,32.65
2022-12-17T18:02:02.850Z,31.90
2022-12-17T18:04:30.602Z,32.10
2022-12-17T18:09:45.202Z,33.08
2022-12-17T18:12:31.030Z,37.13
2022-12-17T18:15:14.805Z,35.47
2022-12-17T18:17:46.817Z,32.75
2022-12-17T18:20:14.274Z,35.67
2022-12-17T18:22:41.750Z,33.60
2022-12-17T18:25:09.141Z,32.65
2022-12-17T18:27:36.776Z,34.47
2022-12-17T18:30:04.622Z,36.75
2022-12-17T18:32:32.029Z,34.97
2022-12-17T18:34:59.806Z,36.25
2022-12-17T18:37:27.206Z,42.88
2022-12-17T18:39:54.500Z,38.08
2022-12-17T18:42:40.321Z,37.28
2022-12-17T18:45:08.082Z,44.53
2022-12-17T18:47:35.381Z,39.33
2022-12-17T18:50:02.866Z,39.70
2022-12-17T18:52:30.346Z,38.42
2022-12-17T18:54:57.741Z,39.22
2022-12-17T18:57:25.060Z,38.50
2022-12-17T18:59:53.558Z,40.47
2022-12-17T19:02:20.996Z,39.83
2022-12-17T19:04:48.352Z,39.13
2022-12-17T19:07:15.692Z,47.38
2022-12-17T19:09:43.037Z,39.75
2022-12-17T19:12:10.492Z,41.28
2022-12-17T19:14:37.930Z,39.78
2022-12-17T19:17:06.056Z,39.13
2022-12-17T19:19:33.610Z,40.08
2022-12-17T19:22:01.007Z,41.88
2022-12-17T19:24:28.438Z,39.67
2022-12-17T19:26:55.778Z,42.47
2022-12-17T19:29:23.168Z,41.35
2022-12-17T19:31:50.551Z,39.20
2022-12-17T19:34:18.468Z,38.75
2022-12-17T19:36:46.142Z,38.78
2022-12-17T19:39:15.245Z,38.33
2022-12-17T19:41:42.610Z,39.47
2022-12-17T19:44:12.497Z,38.28
2022-12-17T19:46:40.088Z,40.95
2022-12-17T19:49:08.430Z,38.03
2022-12-17T19:51:39.599Z,39.70
2022-12-17T19:54:09.199Z,40.53
2022-12-17T19:56:36.961Z,39.90
2022-12-17T19:59:07.373Z,38.72
2022-12-17T20:01:36.944Z,39.85
2022-12-17T20:04:04.993Z,37.42
2022-12-17T20:06:33.239Z,38.00
2022-12-17T20:09:01.255Z,39.72
2022-12-17T20:11:35.048Z,40.15
2022-12-17T20:14:02.623Z,40.70
2022-12-17T20:16:30.674Z,41.67
2022-12-17T20:19:01.632Z,42.30
2022-12-17T20:21:29.093Z,38.38
2022-12-17T20:23:56.503Z,37.60
2022-12-17T20:26:24.099Z,40.33
2022-12-17T20:28:51.685Z,37.55
2022-12-17T20:31:26.664Z,38.53
2022-12-17T20:33:54.022Z,38.13
2022-12-17T20:36:21.630Z,38.97
2022-12-17T20:38:49.075Z,40.28
2022-12-17T20:41:21.009Z,39.75
2022-12-17T20:43:48.686Z,38.10
2022-12-17T20:46:16.689Z,37.08
2022-12-17T20:48:44.404Z,35.17
2022-12-17T20:51:17.289Z,34.63
2022-12-17T20:53:44.941Z,34.60
2022-12-17T20:56:14.105Z,34.78
2022-12-17T20:58:41.923Z,34.85
2022-12-17T21:01:18.564Z,37.00
2022-12-17T21:03:46.638Z,30.80
2022-12-17T21:06:15.819Z,28.50
2022-12-17T21:08:49.143Z,30.60
2022-12-17T21:13:51.732Z,28.70
2022-12-17T21:16:21.109Z,28.92
2022-12-17T21:18:48.599Z,29.13
2022-12-17T21:21:18.134Z,31.38
2022-12-17T21:23:46.309Z,25.55
2022-12-17T21:26:18.175Z,32.25
2022-12-17T21:28:46.334Z,25.73
2022-12-17T21:31:23.600Z,25.92
2022-12-17T21:33:51.731Z,27.52
2022-12-17T21:36:19.873Z,24.77
2022-12-17T21:38:47.438Z,25.38
2022-12-17T21:41:16.517Z,26.08
2022-12-17T21:43:44.074Z,25.05
2022-12-17T21:46:11.543Z,25.52
2022-12-17T21:48:42.213Z,24.85
2022-12-17T21:51:11.893Z,25.98
2022-12-17T21:53:42.369Z,25.98
2022-12-17T21:56:11.916Z,25.63
2022-12-17T21:58:40.104Z,25.80
2022-12-17T22:01:19.342Z,25.00
2022-12-17T22:03:53.513Z,23.08
2022-12-17T22:06:24.266Z,23.40
2022-12-17T22:08:56.615Z,23.93
2022-12-17T22:11:26.145Z,24.40
2022-12-17T22:14:07.257Z,25.33
2022-12-17T22:16:39.052Z,25.73
2022-12-17T22:19:07.522Z,26.67
2022-12-17T22:21:35.655Z,25.83
2022-12-17T22:24:03.257Z,25.75
2022-12-17T22:26:30.714Z,25.65
2022-12-17T22:28:58.022Z,28.05
2022-12-17T22:31:43.758Z,26.85
2022-12-17T22:35:22.702Z,26.42
2022-12-17T22:39:15.062Z,27.63
2022-12-17T22:44:36.168Z,27.20
2022-12-17T22:44:41.788Z,26.45
2022-12-17T22:45:40.942Z,27.00
2022-12-17T22:48:15.024Z,27.00
2022-12-17T22:50:45.623Z,27.05
2022-12-17T22:53:19.261Z,27.83
2022-12-17T22:55:47.012Z,27.48
2022-12-17T22:58:14.643Z,27.85
2022-12-17T23:00:41.954Z,25.63
2022-12-17T23:03:09.386Z,25.25
2022-12-17T23:05:36.903Z,24.35
2022-12-17T23:08:04.399Z,24.58
2022-12-17T23:10:31.745Z,26.58
2022-12-17T23:12:59.115Z,26.55
2022-12-17T23:15:33.018Z,27.63
2022-12-17T23:20:29.591Z,29.52
2022-12-17T23:22:56.896Z,29.42
2022-12-17T23:25:24.320Z,31.52
2022-12-17T23:27:51.936Z,29.23
2022-12-17T23:30:19.394Z,27.13
2022-12-17T23:32:46.796Z,27.52
2022-12-17T23:35:14.210Z,26.73
2022-12-17T23:37:44.710Z,26.95
2022-12-17T23:40:12.470Z,27.80
2022-12-17T23:42:39.849Z,29.40
2022-12-17T23:45:07.746Z,30.80
2022-12-17T23:47:35.076Z,29.88
2022-12-17T23:50:02.366Z,31.75
2022-12-17T23:52:29.738Z,32.25
2022-12-17T23:55:05.288Z,33.83
2022-12-17T23:57:32.881Z,32.53
